sensor_id;sensor_type;location;lat;lon;timestamp;temperature;humidity
3246;DHT22;1635;48.000;10.582;2022-08-19T00:01:57;16.30;99.90
3246;DHT22;1635;48.000;10.582;2022-08-19T00:04:30;16.40;99.90
3246;DHT22;1635;48.000;10.582;2022-08-19T00:06:59;16.40;99.90
3246;DHT22;1635;48.000;10.582;2022-08-19T00:09:28;16.40;99.90
3246;DHT22;1635;48.000;10.582;2022-08-19T00:11:56;16.30;99.90
3246;DHT22;1635;48.000;10.582;2022-08-19T00:14:26;16.40;99.90
3246;DHT22;1635;48.000;10.582;2022-08-19T00:16:54;16.40;99.90
3246;DHT22;1635;48.000;10.582;2022-08-19T00:19:23;16.40;99.90
3246;DHT22;1635;48.000;10.582;2022-08-19T00:21:52;16.40;99.90
3246;DHT22;1635;48.000;10.582;2022-08-19T00:24:20;16.40;99.90
3246;DHT22;1635;48.000;10.582;2022-08-19T00:26:47;16.40;99.90
3246;DHT22;1635;48.000;10.582;2022-08-19T00:29:17;16.30;99.90
3246;DHT22;1635;48.000;10.582;2022-08-19T00:31:46;16.30;99.90
3246;DHT22;1635;48.000;10.582;2022-08-19T00:34:16;16.40;99.90
3246;DHT22;1635;48.000;10.582;2022-08-19T00:36:45;16.40;99.90
3246;DHT22;1635;48.000;10.582;2022-08-19T00:39:14;16.40;99.90
3246;DHT22;1635;48.000;10.582;2022-08-19T00:41:44;16.50;99.90
3246;DHT22;1635;48.000;10.582;2022-08-19T00:44:17;16.50;99.90
3246;DHT22;1635;48.000;10.582;2022-08-19T00:46:51;16.50;99.90
3246;DHT22;1635;48.000;10.582;2022-08-19T00:49:26;16.50;99.90
3246;DHT22;1635;48.000;10.582;2022-08-19T00:52:00;16.50;99.90
3246;DHT22;1635;48.000;10.582;2022-08-19T00:54:29;16.50;99.90
3246;DHT22;1635;48.000;10.582;2022-08-19T00:56:59;16.50;99.90
3246;DHT22;1635;48.000;10.582;2022-08-19T00:59:29;16.60;99.90
3246;DHT22;1635;48.000;10.582;2022-08-19T01:02:17;16.60;99.90
3246;DHT22;1635;48.000;10.582;2022-08-19T01:04:44;16.60;99.90
3246;DHT22;1635;48.000;10.582;2022-08-19T01:07:12;16.60;99.90
3246;DHT22;1635;48.000;10.582;2022-08-19T01:09:43;16.60;99.90
3246;DHT22;1635;48.000;10.582;2022-08-19T01:12:11;16.60;99.90
3246;DHT22;1635;48.000;10.582;2022-08-19T01:14:39;16.60;99.90
3246;DHT22;1635;48.000;10.582;2022-08-19T01:17:09;16.60;99.90
3246;DHT22;1635;48.000;10.582;2022-08-19T01:19:40;16.60;99.90
3246;DHT22;1635;48.000;10.582;2022-08-19T01:22:26;16.60;99.90
3246;DHT22;1635;48.000;10.582;2022-08-19T01:25:00;16.60;99.90
3246;DHT22;1635;48.000;10.582;2022-08-19T01:27:37;16.60;99.90
3246;DHT22;1635;48.000;10.582;2022-08-19T01:30:13;16.70;99.90
3246;DHT22;1635;48.000;10.582;2022-08-19T01:32:41;16.60;99.90
3246;DHT22;1635;48.000;10.582;2022-08-19T01:35:10;16.70;99.90
3246;DHT22;1635;48.000;10.582;2022-08-19T01:37:50;16.70;99.90
3246;DHT22;1635;48.000;10.582;2022-08-19T01:40:20;16.70;99.90
3246;DHT22;1635;48.000;10.582;2022-08-19T01:42:50;16.60;99.90
3246;DHT22;1635;48.000;10.582;2022-08-19T01:45:19;16.70;99.90
3246;DHT22;1635;48.000;10.582;2022-08-19T01:47:48;16.60;99.90
3246;DHT22;1635;48.000;10.582;2022-08-19T01:50:30;16.70;99.90
3246;DHT22;1635;48.000;10.582;2022-08-19T01:52:59;16.70;99.90
3246;DHT22;1635;48.000;10.582;2022-08-19T01:55:36;16.70;99.90
3246;DHT22;1635;48.000;10.582;2022-08-19T01:58:13;16.70;99.90
3246;DHT22;1635;48.000;10.582;2022-08-19T02:00:43;16.70;99.90
3246;DHT22;1635;48.000;10.582;2022-08-19T02:03:15;16.60;99.90
3246;DHT22;1635;48.000;10.582;2022-08-19T02:05:43;16.60;99.90
3246;DHT22;1635;48.000;10.582;2022-08-19T02:08:12;16.70;99.90
3246;DHT22;1635;48.000;10.582;2022-08-19T02:10:42;16.70;99.90
3246;DHT22;1635;48.000;10.582;2022-08-19T02:13:11;16.70;99.90
3246;DHT22;1635;48.000;10.582;2022-08-19T02:15:39;16.70;99.90
3246;DHT22;1635;48.000;10.582;2022-08-19T02:18:06;16.70;99.90
3246;DHT22;1635;48.000;10.582;2022-08-19T02:20:37;16.70;99.90
3246;DHT22;1635;48.000;10.582;2022-08-19T02:23:06;16.70;99.90
3246;DHT22;1635;48.000;10.582;2022-08-19T02:25:44;16.80;99.90
3246;DHT22;1635;48.000;10.582;2022-08-19T02:28:13;16.80;99.90
3246;DHT22;1635;48.000;10.582;2022-08-19T02:30:45;16.80;99.90
3246;DHT22;1635;48.000;10.582;2022-08-19T02:33:15;16.80;99.90
3246;DHT22;1635;48.000;10.582;2022-08-19T02:35:44;16.80;99.90
3246;DHT22;1635;48.000;10.582;2022-08-19T02:38:13;16.80;99.90
3246;DHT22;1635;48.000;10.582;2022-08-19T02:40:57;16.80;99.90
3246;DHT22;1635;48.000;10.582;2022-08-19T02:43:27;16.80;99.90
3246;DHT22;1635;48.000;10.582;2022-08-19T02:45:59;16.70;99.90
3246;DHT22;1635;48.000;10.582;2022-08-19T02:48:28;16.70;99.90
3246;DHT22;1635;48.000;10.582;2022-08-19T02:50:55;16.70;99.90
3246;DHT22;1635;48.000;10.582;2022-08-19T02:53:26;16.80;99.90
3246;DHT22;1635;48.000;10.582;2022-08-19T02:55:54;16.80;99.90
3246;DHT22;1635;48.000;10.582;2022-08-19T02:58:22;16.80;99.90
3246;DHT22;1635;48.000;10.582;2022-08-19T03:00:54;16.80;99.90
3246;DHT22;1635;48.000;10.582;2022-08-19T03:03:22;16.80;99.90
3246;DHT22;1635;48.000;10.582;2022-08-19T03:05:51;16.80;99.90
3246;DHT22;1635;48.000;10.582;2022-08-19T03:08:23;16.80;99.90
3246;DHT22;1635;48.000;10.582;2022-08-19T03:10:52;16.80;99.90
3246;DHT22;1635;48.000;10.582;2022-08-19T03:13:19;16.80;99.90
3246;DHT22;1635;48.000;10.582;2022-08-19T03:15:47;16.80;99.90
3246;DHT22;1635;48.000;10.582;2022-08-19T03:18:16;16.80;99.90
3246;DHT22;1635;48.000;10.582;2022-08-19T03:20:47;16.80;99.90
3246;DHT22;1635;48.000;10.582;2022-08-19T03:23:16;16.80;99.90
3246;DHT22;1635;48.000;10.582;2022-08-19T03:25:46;16.80;99.90
3246;DHT22;1635;48.000;10.582;2022-08-19T03:28:35;16.80;99.90
3246;DHT22;1635;48.000;10.582;2022-08-19T03:31:10;16.80;99.90
3246;DHT22;1635;48.000;10.582;2022-08-19T03:33:59;16.80;99.90
3246;DHT22;1635;48.000;10.582;2022-08-19T03:36:27;16.80;99.90
3246;DHT22;1635;48.000;10.582;2022-08-19T03:38:59;16.90;99.90
3246;DHT22;1635;48.000;10.582;2022-08-19T03:41:32;16.90;99.90
3246;DHT22;1635;48.000;10.582;2022-08-19T03:44:18;16.90;99.90
3246;DHT22;1635;48.000;10.582;2022-08-19T03:46:50;16.90;99.90
3246;DHT22;1635;48.000;10.582;2022-08-19T03:49:21;16.90;99.90
3246;DHT22;1635;48.000;10.582;2022-08-19T03:51:56;16.90;99.90
3246;DHT22;1635;48.000;10.582;2022-08-19T03:54:25;16.90;99.90
3246;DHT22;1635;48.000;10.582;2022-08-19T03:56:55;16.90;99.90
3246;DHT22;1635;48.000;10.582;2022-08-19T03:59:30;16.90;99.90
3246;DHT22;1635;48.000;10.582;2022-08-19T04:02:00;17.00;99.90
3246;DHT22;1635;48.000;10.582;2022-08-19T04:04:28;16.90;99.90
3246;DHT22;1635;48.000;10.582;2022-08-19T04:06:58;16.90;99.90
3246;DHT22;1635;48.000;10.582;2022-08-19T04:09:26;16.90;99.90
3246;DHT22;1635;48.000;10.582;2022-08-19T04:11:56;16.90;99.90
3246;DHT22;1635;48.000;10.582;2022-08-19T04:14:27;16.90;99.90
3246;DHT22;1635;48.000;10.582;2022-08-19T04:16:58;16.90;99.90
3246;DHT22;1635;48.000;10.582;2022-08-19T04:19:29;16.90;99.90
3246;DHT22;1635;48.000;10.582;2022-08-19T04:21:56;16.90;99.90
3246;DHT22;1635;48.000;10.582;2022-08-19T04:24:26;16.90;99.90
3246;DHT22;1635;48.000;10.582;2022-08-19T04:26:54;16.90;99.90
3246;DHT22;1635;48.000;10.582;2022-08-19T04:29:24;16.90;99.90
3246;DHT22;1635;48.000;10.582;2022-08-19T04:31:55;16.90;99.90
3246;DHT22;1635;48.000;10.582;2022-08-19T04:34:25;16.90;99.90
3246;DHT22;1635;48.000;10.582;2022-08-19T04:36:55;17.00;99.90
3246;DHT22;1635;48.000;10.582;2022-08-19T04:39:26;17.00;99.90
3246;DHT22;1635;48.000;10.582;2022-08-19T04:42:16;17.10;99.90
3246;DHT22;1635;48.000;10.582;2022-08-19T04:45:06;17.10;99.90
3246;DHT22;1635;48.000;10.582;2022-08-19T04:47:37;17.10;99.90
3246;DHT22;1635;48.000;10.582;2022-08-19T04:50:25;17.10;99.90
3246;DHT22;1635;48.000;10.582;2022-08-19T04:52:54;17.20;99.90
3246;DHT22;1635;48.000;10.582;2022-08-19T04:55:23;17.20;99.90
3246;DHT22;1635;48.000;10.582;2022-08-19T04:57:54;17.30;99.90
3246;DHT22;1635;48.000;10.582;2022-08-19T05:00:22;17.40;99.90
3246;DHT22;1635;48.000;10.582;2022-08-19T05:02:50;17.40;99.90
3246;DHT22;1635;48.000;10.582;2022-08-19T05:05:18;17.50;99.90
3246;DHT22;1635;48.000;10.582;2022-08-19T05:07:45;17.50;99.90
3246;DHT22;1635;48.000;10.582;2022-08-19T05:10:14;17.50;99.90
3246;DHT22;1635;48.000;10.582;2022-08-19T05:12:41;17.50;99.90
3246;DHT22;1635;48.000;10.582;2022-08-19T05:15:09;17.50;99.90
3246;DHT22;1635;48.000;10.582;2022-08-19T05:17:37;17.60;99.90
3246;DHT22;1635;48.000;10.582;2022-08-19T05:20:07;17.60;99.90
3246;DHT22;1635;48.000;10.582;2022-08-19T05:22:53;17.50;99.90
3246;DHT22;1635;48.000;10.582;2022-08-19T05:25:22;17.50;99.90
3246;DHT22;1635;48.000;10.582;2022-08-19T05:27:50;17.50;99.90
3246;DHT22;1635;48.000;10.582;2022-08-19T05:30:18;17.50;99.90
3246;DHT22;1635;48.000;10.582;2022-08-19T05:33:07;17.50;99.90
3246;DHT22;1635;48.000;10.582;2022-08-19T05:35:38;17.50;99.90
3246;DHT22;1635;48.000;10.582;2022-08-19T05:38:07;17.60;99.90
3246;DHT22;1635;48.000;10.582;2022-08-19T05:40:37;17.60;99.90
3246;DHT22;1635;48.000;10.582;2022-08-19T05:43:07;17.50;99.90
3246;DHT22;1635;48.000;10.582;2022-08-19T05:45:40;17.50;99.90
3246;DHT22;1635;48.000;10.582;2022-08-19T05:48:12;17.50;99.90
3246;DHT22;1635;48.000;10.582;2022-08-19T05:50:41;17.50;99.90
3246;DHT22;1635;48.000;10.582;2022-08-19T05:53:09;17.50;99.90
3246;DHT22;1635;48.000;10.582;2022-08-19T05:55:37;17.30;99.90
3246;DHT22;1635;48.000;10.582;2022-08-19T05:58:05;17.30;99.90
3246;DHT22;1635;48.000;10.582;2022-08-19T06:00:36;17.20;99.90
3246;DHT22;1635;48.000;10.582;2022-08-19T06:03:05;17.30;99.90
3246;DHT22;1635;48.000;10.582;2022-08-19T06:05:40;17.30;99.90
3246;DHT22;1635;48.000;10.582;2022-08-19T06:08:18;17.40;99.90
3246;DHT22;1635;48.000;10.582;2022-08-19T06:10:45;17.30;99.90
3246;DHT22;1635;48.000;10.582;2022-08-19T06:13:13;17.30;99.90
3246;DHT22;1635;48.000;10.582;2022-08-19T06:15:41;17.20;99.90
3246;DHT22;1635;48.000;10.582;2022-08-19T06:18:10;17.20;99.90
3246;DHT22;1635;48.000;10.582;2022-08-19T06:20:41;17.20;99.90
3246;DHT22;1635;48.000;10.582;2022-08-19T06:23:22;17.30;99.90
3246;DHT22;1635;48.000;10.582;2022-08-19T06:25:51;17.20;99.90
3246;DHT22;1635;48.000;10.582;2022-08-19T06:28:18;17.30;99.90
3246;DHT22;1635;48.000;10.582;2022-08-19T06:30:47;17.30;99.90
3246;DHT22;1635;48.000;10.582;2022-08-19T06:33:14;17.30;99.90
3246;DHT22;1635;48.000;10.582;2022-08-19T06:35:42;17.30;99.90
3246;DHT22;1635;48.000;10.582;2022-08-19T06:38:15;17.30;99.90
3246;DHT22;1635;48.000;10.582;2022-08-19T06:40:43;17.40;99.90
3246;DHT22;1635;48.000;10.582;2022-08-19T06:43:11;17.50;99.90
3246;DHT22;1635;48.000;10.582;2022-08-19T06:45:39;17.50;99.90
3246;DHT22;1635;48.000;10.582;2022-08-19T06:48:07;17.50;99.90
3246;DHT22;1635;48.000;10.582;2022-08-19T06:50:37;17.50;99.90
3246;DHT22;1635;48.000;10.582;2022-08-19T06:53:08;17.50;99.90
3246;DHT22;1635;48.000;10.582;2022-08-19T06:55:35;17.60;99.90
3246;DHT22;1635;48.000;10.582;2022-08-19T06:58:05;17.60;99.90
3246;DHT22;1635;48.000;10.582;2022-08-19T07:00:33;17.70;99.90
3246;DHT22;1635;48.000;10.582;2022-08-19T07:03:01;17.80;99.90
3246;DHT22;1635;48.000;10.582;2022-08-19T07:05:40;17.80;99.90
3246;DHT22;1635;48.000;10.582;2022-08-19T07:08:13;17.80;99.90
3246;DHT22;1635;48.000;10.582;2022-08-19T07:10:45;17.70;99.90
3246;DHT22;1635;48.000;10.582;2022-08-19T07:13:13;17.60;99.90
3246;DHT22;1635;48.000;10.582;2022-08-19T07:15:40;17.60;99.90
3246;DHT22;1635;48.000;10.582;2022-08-19T07:18:09;17.70;99.90
3246;DHT22;1635;48.000;10.582;2022-08-19T07:20:39;17.80;99.90
3246;DHT22;1635;48.000;10.582;2022-08-19T07:23:09;17.80;99.90
3246;DHT22;1635;48.000;10.582;2022-08-19T07:25:44;17.90;99.90
3246;DHT22;1635;48.000;10.582;2022-08-19T07:28:20;17.90;99.90
3246;DHT22;1635;48.000;10.582;2022-08-19T07:30:51;17.80;99.90
3246;DHT22;1635;48.000;10.582;2022-08-19T07:33:20;17.80;99.90
3246;DHT22;1635;48.000;10.582;2022-08-19T07:35:48;17.80;99.90
3246;DHT22;1635;48.000;10.582;2022-08-19T07:38:17;17.80;99.90
3246;DHT22;1635;48.000;10.582;2022-08-19T07:40:45;17.80;99.90
3246;DHT22;1635;48.000;10.582;2022-08-19T07:43:14;17.80;99.90
3246;DHT22;1635;48.000;10.582;2022-08-19T07:45:58;17.70;99.90
3246;DHT22;1635;48.000;10.582;2022-08-19T07:48:27;17.70;99.90
3246;DHT22;1635;48.000;10.582;2022-08-19T07:50:58;17.70;99.90
3246;DHT22;1635;48.000;10.582;2022-08-19T07:53:31;17.60;99.90
3246;DHT22;1635;48.000;10.582;2022-08-19T07:56:05;17.70;99.90
3246;DHT22;1635;48.000;10.582;2022-08-19T07:58:37;17.70;99.90
3246;DHT22;1635;48.000;10.582;2022-08-19T08:01:06;17.70;99.90
3246;DHT22;1635;48.000;10.582;2022-08-19T08:03:36;17.70;99.90
3246;DHT22;1635;48.000;10.582;2022-08-19T08:06:24;17.70;99.90
3246;DHT22;1635;48.000;10.582;2022-08-19T08:09:10;17.60;99.90
3246;DHT22;1635;48.000;10.582;2022-08-19T08:11:54;17.50;99.90
3246;DHT22;1635;48.000;10.582;2022-08-19T08:14:30;17.50;99.90
3246;DHT22;1635;48.000;10.582;2022-08-19T08:17:03;17.50;99.90
3246;DHT22;1635;48.000;10.582;2022-08-19T08:19:38;17.40;99.90
3246;DHT22;1635;48.000;10.582;2022-08-19T08:22:10;17.50;99.90
3246;DHT22;1635;48.000;10.582;2022-08-19T08:25:11;17.40;99.90
3246;DHT22;1635;48.000;10.582;2022-08-19T08:27:43;17.40;99.90
3246;DHT22;1635;48.000;10.582;2022-08-19T08:30:20;17.40;99.90
3246;DHT22;1635;48.000;10.582;2022-08-19T08:32:49;17.50;99.90
3246;DHT22;1635;48.000;10.582;2022-08-19T08:35:21;17.50;99.90
3246;DHT22;1635;48.000;10.582;2022-08-19T08:37:51;17.40;99.90
3246;DHT22;1635;48.000;10.582;2022-08-19T08:40:34;17.40;99.90
3246;DHT22;1635;48.000;10.582;2022-08-19T08:45:47;17.40;99.90
3246;DHT22;1635;48.000;10.582;2022-08-19T08:48:34;17.50;99.90
3246;DHT22;1635;48.000;10.582;2022-08-19T08:51:12;17.50;99.90
3246;DHT22;1635;48.000;10.582;2022-08-19T08:53:49;17.50;99.90
3246;DHT22;1635;48.000;10.582;2022-08-19T08:56:23;17.60;99.90
3246;DHT22;1635;48.000;10.582;2022-08-19T08:59:07;17.60;99.90
3246;DHT22;1635;48.000;10.582;2022-08-19T09:01:38;17.70;99.90
3246;DHT22;1635;48.000;10.582;2022-08-19T09:04:06;17.80;99.90
3246;DHT22;1635;48.000;10.582;2022-08-19T09:09:52;17.80;99.90
3246;DHT22;1635;48.000;10.582;2022-08-19T09:15:39;17.80;99.90
3246;DHT22;1635;48.000;10.582;2022-08-19T09:18:08;17.90;99.90
3246;DHT22;1635;48.000;10.582;2022-08-19T09:20:46;17.90;99.90
3246;DHT22;1635;48.000;10.582;2022-08-19T09:23:16;18.10;99.90
3246;DHT22;1635;48.000;10.582;2022-08-19T09:25:53;18.20;99.90
3246;DHT22;1635;48.000;10.582;2022-08-19T09:28:21;18.20;99.90
3246;DHT22;1635;48.000;10.582;2022-08-19T09:30:53;18.20;99.90
3246;DHT22;1635;48.000;10.582;2022-08-19T09:33:21;18.20;99.90
3246;DHT22;1635;48.000;10.582;2022-08-19T09:35:50;18.10;99.90
3246;DHT22;1635;48.000;10.582;2022-08-19T09:38:21;17.90;99.90
3246;DHT22;1635;48.000;10.582;2022-08-19T09:40:49;17.80;99.90
3246;DHT22;1635;48.000;10.582;2022-08-19T09:43:18;17.70;99.90
3246;DHT22;1635;48.000;10.582;2022-08-19T09:46:01;17.50;99.90
3246;DHT22;1635;48.000;10.582;2022-08-19T09:48:29;17.60;99.90
3246;DHT22;1635;48.000;10.582;2022-08-19T09:51:05;17.60;99.90
3246;DHT22;1635;48.000;10.582;2022-08-19T09:53:39;17.60;99.90
3246;DHT22;1635;48.000;10.582;2022-08-19T09:56:07;17.60;99.90
3246;DHT22;1635;48.000;10.582;2022-08-19T09:58:36;17.50;99.90
3246;DHT22;1635;48.000;10.582;2022-08-19T10:01:06;17.50;99.90
3246;DHT22;1635;48.000;10.582;2022-08-19T10:03:36;17.50;99.90
3246;DHT22;1635;48.000;10.582;2022-08-19T10:06:05;17.50;99.90
3246;DHT22;1635;48.000;10.582;2022-08-19T10:08:42;17.50;99.90
3246;DHT22;1635;48.000;10.582;2022-08-19T10:11:18;17.60;99.90
3246;DHT22;1635;48.000;10.582;2022-08-19T10:14:04;17.70;99.90
3246;DHT22;1635;48.000;10.582;2022-08-19T10:16:33;17.70;99.90
3246;DHT22;1635;48.000;10.582;2022-08-19T10:19:06;17.70;99.90
3246;DHT22;1635;48.000;10.582;2022-08-19T10:21:34;17.70;99.90
3246;DHT22;1635;48.000;10.582;2022-08-19T10:24:04;17.70;99.90
3246;DHT22;1635;48.000;10.582;2022-08-19T10:26:36;17.70;99.90
3246;DHT22;1635;48.000;10.582;2022-08-19T10:29:07;17.60;99.90
3246;DHT22;1635;48.000;10.582;2022-08-19T10:31:36;17.60;99.90
3246;DHT22;1635;48.000;10.582;2022-08-19T10:34:24;17.50;99.90
3246;DHT22;1635;48.000;10.582;2022-08-19T10:36:56;17.40;99.90
3246;DHT22;1635;48.000;10.582;2022-08-19T10:39:28;17.40;99.90
3246;DHT22;1635;48.000;10.582;2022-08-19T10:41:59;17.40;99.90
3246;DHT22;1635;48.000;10.582;2022-08-19T10:44:32;17.40;99.90
3246;DHT22;1635;48.000;10.582;2022-08-19T10:47:00;17.40;99.90
3246;DHT22;1635;48.000;10.582;2022-08-19T10:49:27;17.40;99.90
3246;DHT22;1635;48.000;10.582;2022-08-19T10:51:56;17.40;99.90
3246;DHT22;1635;48.000;10.582;2022-08-19T10:54:46;17.40;99.90
3246;DHT22;1635;48.000;10.582;2022-08-19T10:57:35;17.30;99.90
3246;DHT22;1635;48.000;10.582;2022-08-19T11:00:23;17.30;99.90
3246;DHT22;1635;48.000;10.582;2022-08-19T11:02:52;17.20;99.90
3246;DHT22;1635;48.000;10.582;2022-08-19T11:05:20;17.10;99.90
3246;DHT22;1635;48.000;10.582;2022-08-19T11:07:51;17.10;99.90
3246;DHT22;1635;48.000;10.582;2022-08-19T11:10:20;17.00;99.90
3246;DHT22;1635;48.000;10.582;2022-08-19T11:12:49;17.00;99.90
3246;DHT22;1635;48.000;10.582;2022-08-19T11:15:20;16.90;99.90
3246;DHT22;1635;48.000;10.582;2022-08-19T11:17:49;16.90;99.90
3246;DHT22;1635;48.000;10.582;2022-08-19T11:20:22;16.90;99.90
3246;DHT22;1635;48.000;10.582;2022-08-19T11:22:52;16.90;99.90
3246;DHT22;1635;48.000;10.582;2022-08-19T11:25:24;16.90;99.90
3246;DHT22;1635;48.000;10.582;2022-08-19T11:27:52;16.80;99.90
3246;DHT22;1635;48.000;10.582;2022-08-19T11:30:20;16.80;99.90
3246;DHT22;1635;48.000;10.582;2022-08-19T11:32:48;16.80;99.90
3246;DHT22;1635;48.000;10.582;2022-08-19T11:35:16;16.80;99.90
3246;DHT22;1635;48.000;10.582;2022-08-19T11:37:47;16.80;99.90
3246;DHT22;1635;48.000;10.582;2022-08-19T11:40:15;16.80;99.90
3246;DHT22;1635;48.000;10.582;2022-08-19T11:42:43;16.80;99.90
3246;DHT22;1635;48.000;10.582;2022-08-19T11:45:26;16.80;99.90
3246;DHT22;1635;48.000;10.582;2022-08-19T11:47:54;16.70;99.90
3246;DHT22;1635;48.000;10.582;2022-08-19T11:50:23;16.70;99.90
3246;DHT22;1635;48.000;10.582;2022-08-19T11:52:56;16.80;99.90
3246;DHT22;1635;48.000;10.582;2022-08-19T11:55:24;16.70;99.90
3246;DHT22;1635;48.000;10.582;2022-08-19T11:57:53;16.80;99.90
3246;DHT22;1635;48.000;10.582;2022-08-19T12:00:21;16.70;99.90
3246;DHT22;1635;48.000;10.582;2022-08-19T12:02:49;16.70;99.90
3246;DHT22;1635;48.000;10.582;2022-08-19T12:05:17;16.80;99.90
3246;DHT22;1635;48.000;10.582;2022-08-19T12:07:45;16.80;99.90
3246;DHT22;1635;48.000;10.582;2022-08-19T12:10:16;16.90;99.90
3246;DHT22;1635;48.000;10.582;2022-08-19T12:12:46;16.80;99.90
3246;DHT22;1635;48.000;10.582;2022-08-19T12:15:26;16.90;99.90
3246;DHT22;1635;48.000;10.582;2022-08-19T12:18:04;16.90;99.90
3246;DHT22;1635;48.000;10.582;2022-08-19T12:20:35;16.90;99.90
3246;DHT22;1635;48.000;10.582;2022-08-19T12:23:04;16.90;99.90
3246;DHT22;1635;48.000;10.582;2022-08-19T12:25:33;16.90;99.90
3246;DHT22;1635;48.000;10.582;2022-08-19T12:28:03;16.90;99.90
3246;DHT22;1635;48.000;10.582;2022-08-19T12:30:31;16.90;99.90
3246;DHT22;1635;48.000;10.582;2022-08-19T12:32:59;16.90;99.90
3246;DHT22;1635;48.000;10.582;2022-08-19T12:35:27;17.00;99.90
3246;DHT22;1635;48.000;10.582;2022-08-19T12:37:56;17.10;99.90
3246;DHT22;1635;48.000;10.582;2022-08-19T12:40:24;17.20;99.90
3246;DHT22;1635;48.000;10.582;2022-08-19T12:42:53;17.20;99.90
3246;DHT22;1635;48.000;10.582;2022-08-19T12:45:21;17.40;99.90
3246;DHT22;1635;48.000;10.582;2022-08-19T12:47:50;17.40;99.90
3246;DHT22;1635;48.000;10.582;2022-08-19T12:50:21;17.40;99.90
3246;DHT22;1635;48.000;10.582;2022-08-19T12:52:49;17.50;99.90
3246;DHT22;1635;48.000;10.582;2022-08-19T12:55:17;17.60;99.90
3246;DHT22;1635;48.000;10.582;2022-08-19T12:57:46;17.70;99.90
3246;DHT22;1635;48.000;10.582;2022-08-19T13:00:18;17.80;99.90
3246;DHT22;1635;48.000;10.582;2022-08-19T13:02:50;17.90;99.90
3246;DHT22;1635;48.000;10.582;2022-08-19T13:05:22;18.00;99.90
3246;DHT22;1635;48.000;10.582;2022-08-19T13:07:54;18.00;99.90
3246;DHT22;1635;48.000;10.582;2022-08-19T13:10:27;17.90;99.90
3246;DHT22;1635;48.000;10.582;2022-08-19T13:12:57;17.90;99.90
3246;DHT22;1635;48.000;10.582;2022-08-19T13:15:26;17.90;99.90
3246;DHT22;1635;48.000;10.582;2022-08-19T13:17:58;17.80;99.90
3246;DHT22;1635;48.000;10.582;2022-08-19T13:20:26;17.80;99.90
3246;DHT22;1635;48.000;10.582;2022-08-19T13:22:55;17.70;99.90
3246;DHT22;1635;48.000;10.582;2022-08-19T13:25:24;17.70;99.90
3246;DHT22;1635;48.000;10.582;2022-08-19T13:27:53;17.80;99.90
3246;DHT22;1635;48.000;10.582;2022-08-19T13:30:22;17.80;99.90
3246;DHT22;1635;48.000;10.582;2022-08-19T13:33:09;17.80;99.90
3246;DHT22;1635;48.000;10.582;2022-08-19T13:35:54;17.80;99.90
3246;DHT22;1635;48.000;10.582;2022-08-19T13:38:24;17.80;99.90
3246;DHT22;1635;48.000;10.582;2022-08-19T13:40:53;17.80;99.90
3246;DHT22;1635;48.000;10.582;2022-08-19T13:43:24;17.90;99.90
3246;DHT22;1635;48.000;10.582;2022-08-19T13:45:54;18.00;99.90
3246;DHT22;1635;48.000;10.582;2022-08-19T13:48:26;18.10;99.90
3246;DHT22;1635;48.000;10.582;2022-08-19T13:50:54;18.20;99.90
3246;DHT22;1635;48.000;10.582;2022-08-19T13:53:22;18.20;99.90
3246;DHT22;1635;48.000;10.582;2022-08-19T13:55:51;18.30;99.90
3246;DHT22;1635;48.000;10.582;2022-08-19T13:58:21;18.40;99.90
3246;DHT22;1635;48.000;10.582;2022-08-19T14:00:50;18.40;99.90
3246;DHT22;1635;48.000;10.582;2022-08-19T14:03:18;18.60;99.90
3246;DHT22;1635;48.000;10.582;2022-08-19T14:05:48;18.80;99.90
3246;DHT22;1635;48.000;10.582;2022-08-19T14:08:16;18.90;99.90
3246;DHT22;1635;48.000;10.582;2022-08-19T14:10:45;19.00;99.90
3246;DHT22;1635;48.000;10.582;2022-08-19T14:13:18;19.00;99.90
3246;DHT22;1635;48.000;10.582;2022-08-19T14:15:46;18.90;99.90
3246;DHT22;1635;48.000;10.582;2022-08-19T14:18:17;18.80;99.90
3246;DHT22;1635;48.000;10.582;2022-08-19T14:20:45;18.80;99.90
3246;DHT22;1635;48.000;10.582;2022-08-19T14:23:13;18.70;99.90
3246;DHT22;1635;48.000;10.582;2022-08-19T14:25:42;18.40;99.90
3246;DHT22;1635;48.000;10.582;2022-08-19T14:28:10;18.40;99.90
3246;DHT22;1635;48.000;10.582;2022-08-19T14:30:38;18.40;99.90
3246;DHT22;1635;48.000;10.582;2022-08-19T14:33:07;18.40;99.90
3246;DHT22;1635;48.000;10.582;2022-08-19T14:35:37;18.50;99.90
3246;DHT22;1635;48.000;10.582;2022-08-19T14:38:06;18.50;99.90
3246;DHT22;1635;48.000;10.582;2022-08-19T14:40:41;18.50;99.90
3246;DHT22;1635;48.000;10.582;2022-08-19T14:43:09;18.60;99.90
3246;DHT22;1635;48.000;10.582;2022-08-19T14:45:38;18.60;99.90
3246;DHT22;1635;48.000;10.582;2022-08-19T14:48:08;18.60;99.90
3246;DHT22;1635;48.000;10.582;2022-08-19T14:50:45;18.50;99.90
3246;DHT22;1635;48.000;10.582;2022-08-19T14:53:16;18.40;99.90
3246;DHT22;1635;48.000;10.582;2022-08-19T14:55:46;18.40;99.90
3246;DHT22;1635;48.000;10.582;2022-08-19T14:58:15;18.40;99.90
3246;DHT22;1635;48.000;10.582;2022-08-19T15:00:59;18.20;99.90
3246;DHT22;1635;48.000;10.582;2022-08-19T15:03:28;18.00;99.90
3246;DHT22;1635;48.000;10.582;2022-08-19T15:05:56;17.80;99.90
3246;DHT22;1635;48.000;10.582;2022-08-19T15:08:27;17.70;99.90
3246;DHT22;1635;48.000;10.582;2022-08-19T15:10:56;17.60;99.90
3246;DHT22;1635;48.000;10.582;2022-08-19T15:13:26;17.60;99.90
3246;DHT22;1635;48.000;10.582;2022-08-19T15:15:54;17.60;99.90
3246;DHT22;1635;48.000;10.582;2022-08-19T15:18:23;17.60;99.90
3246;DHT22;1635;48.000;10.582;2022-08-19T15:20:51;17.50;99.90
3246;DHT22;1635;48.000;10.582;2022-08-19T15:23:20;17.40;99.90
3246;DHT22;1635;48.000;10.582;2022-08-19T15:25:49;17.30;99.90
3246;DHT22;1635;48.000;10.582;2022-08-19T15:28:24;17.20;99.90
3246;DHT22;1635;48.000;10.582;2022-08-19T15:30:52;17.10;99.90
3246;DHT22;1635;48.000;10.582;2022-08-19T15:33:20;17.10;99.90
3246;DHT22;1635;48.000;10.582;2022-08-19T15:35:48;17.00;99.90
3246;DHT22;1635;48.000;10.582;2022-08-19T15:38:21;16.90;99.90
3246;DHT22;1635;48.000;10.582;2022-08-19T15:40:52;16.90;99.90
3246;DHT22;1635;48.000;10.582;2022-08-19T15:43:20;16.90;99.90
3246;DHT22;1635;48.000;10.582;2022-08-19T15:45:48;16.90;99.90
3246;DHT22;1635;48.000;10.582;2022-08-19T15:48:16;16.90;99.90
3246;DHT22;1635;48.000;10.582;2022-08-19T15:50:44;16.90;99.90
3246;DHT22;1635;48.000;10.582;2022-08-19T15:53:12;16.90;99.90
3246;DHT22;1635;48.000;10.582;2022-08-19T15:55:43;17.00;99.90
3246;DHT22;1635;48.000;10.582;2022-08-19T15:58:13;17.00;99.90
3246;DHT22;1635;48.000;10.582;2022-08-19T16:01:12;16.90;99.90
3246;DHT22;1635;48.000;10.582;2022-08-19T16:04:07;16.90;99.90
3246;DHT22;1635;48.000;10.582;2022-08-19T16:06:56;16.90;99.90
3246;DHT22;1635;48.000;10.582;2022-08-19T16:09:27;16.90;99.90
3246;DHT22;1635;48.000;10.582;2022-08-19T16:12:01;17.00;99.90
3246;DHT22;1635;48.000;10.582;2022-08-19T16:14:32;17.00;99.90
3246;DHT22;1635;48.000;10.582;2022-08-19T16:17:01;17.00;99.90
3246;DHT22;1635;48.000;10.582;2022-08-19T16:19:29;17.00;99.90
3246;DHT22;1635;48.000;10.582;2022-08-19T16:21:59;16.90;99.90